sensor_id;sensor_type;location;lat;lon;timestamp;P1;durP1;ratioP1;P2;durP2;ratioP2
67498;SDS011;54345;42.670;23.218;2022-10-17T00:01:41;20.23;;;7.97;;
67498;SDS011;54345;42.670;23.218;2022-10-17T00:04:06;16.40;;;7.60;;
67498;SDS011;54345;42.670;23.218;2022-10-17T00:06:32;16.43;;;7.30;;
67498;SDS011;54345;42.670;23.218;2022-10-17T00:08:57;15.10;;;8.00;;
67498;SDS011;54345;42.670;23.218;2022-10-17T00:11:23;17.27;;;8.00;;
67498;SDS011;54345;42.670;23.218;2022-10-17T00:13:49;20.57;;;8.40;;
67498;SDS011;54345;42.670;23.218;2022-10-17T00:16:24;20.80;;;8.70;;
67498;SDS011;54345;42.670;23.218;2022-10-17T00:18:58;22.47;;;7.93;;
67498;SDS011;54345;42.670;23.218;2022-10-17T00:21:24;23.83;;;8.83;;
67498;SDS011;54345;42.670;23.218;2022-10-17T00:23:52;18.13;;;7.77;;
67498;SDS011;54345;42.670;23.218;2022-10-17T00:26:18;17.43;;;7.63;;
67498;SDS011;54345;42.670;23.218;2022-10-17T00:28:47;16.80;;;8.30;;
67498;SDS011;54345;42.670;23.218;2022-10-17T00:31:15;20.53;;;8.30;;
67498;SDS011;54345;42.670;23.218;2022-10-17T00:33:41;17.23;;;7.77;;
67498;SDS011;54345;42.670;23.218;2022-10-17T00:38:39;18.43;;;7.40;;
67498;SDS011;54345;42.670;23.218;2022-10-17T00:41:07;15.73;;;7.13;;
67498;SDS011;54345;42.670;23.218;2022-10-17T00:46:51;21.93;;;7.67;;
67498;SDS011;54345;42.670;23.218;2022-10-17T00:49:18;15.03;;;7.00;;
67498;SDS011;54345;42.670;23.218;2022-10-17T00:51:45;17.10;;;7.33;;
67498;SDS011;54345;42.670;23.218;2022-10-17T00:54:15;19.20;;;7.40;;
67498;SDS011;54345;42.670;23.218;2022-10-17T00:56:43;19.13;;;7.43;;
67498;SDS011;54345;42.670;23.218;2022-10-17T00:59:11;17.67;;;7.57;;
67498;SDS011;54345;42.670;23.218;2022-10-17T01:01:42;22.57;;;9.20;;
67498;SDS011;54345;42.670;23.218;2022-10-17T01:04:24;20.90;;;8.00;;
67498;SDS011;54345;42.670;23.218;2022-10-17T01:06:49;25.87;;;9.23;;
67498;SDS011;54345;42.670;23.218;2022-10-17T01:09:15;15.17;;;7.87;;
67498;SDS011;54345;42.670;23.218;2022-10-17T01:11:45;20.27;;;8.27;;
67498;SDS011;54345;42.670;23.218;2022-10-17T01:16:52;19.40;;;8.67;;
67498;SDS011;54345;42.670;23.218;2022-10-17T01:19:47;23.30;;;9.10;;
67498;SDS011;54345;42.670;23.218;2022-10-17T01:27:54;18.43;;;8.83;;
67498;SDS011;54345;42.670;23.218;2022-10-17T01:33:10;23.90;;;9.97;;
67498;SDS011;54345;42.670;23.218;2022-10-17T01:35:38;24.77;;;9.20;;
67498;SDS011;54345;42.670;23.218;2022-10-17T01:38:14;22.40;;;10.43;;
67498;SDS011;54345;42.670;23.218;2022-10-17T01:40:49;19.30;;;9.07;;
67498;SDS011;54345;42.670;23.218;2022-10-17T01:46:02;19.77;;;8.97;;
67498;SDS011;54345;42.670;23.218;2022-10-17T01:48:36;21.50;;;10.17;;
67498;SDS011;54345;42.670;23.218;2022-10-17T01:51:07;18.80;;;9.70;;
67498;SDS011;54345;42.670;23.218;2022-10-17T01:53:38;21.43;;;9.70;;
67498;SDS011;54345;42.670;23.218;2022-10-17T01:56:09;19.20;;;9.57;;
67498;SDS011;54345;42.670;23.218;2022-10-17T01:58:40;26.70;;;10.60;;
67498;SDS011;54345;42.670;23.218;2022-10-17T02:01:10;20.67;;;9.77;;
67498;SDS011;54345;42.670;23.218;2022-10-17T02:03:37;16.07;;;9.13;;
67498;SDS011;54345;42.670;23.218;2022-10-17T02:06:06;17.93;;;10.57;;
67498;SDS011;54345;42.670;23.218;2022-10-17T02:11:18;23.60;;;9.93;;
67498;SDS011;54345;42.670;23.218;2022-10-17T02:17:23;21.87;;;10.30;;
67498;SDS011;54345;42.670;23.218;2022-10-17T02:25:53;19.10;;;10.07;;
67498;SDS011;54345;42.670;23.218;2022-10-17T02:28:20;21.40;;;10.03;;
67498;SDS011;54345;42.670;23.218;2022-10-17T02:31:36;18.97;;;9.97;;
67498;SDS011;54345;42.670;23.218;2022-10-17T02:34:08;20.40;;;10.30;;
67498;SDS011;54345;42.670;23.218;2022-10-17T02:36:58;23.33;;;10.50;;
67498;SDS011;54345;42.670;23.218;2022-10-17T02:39:26;22.70;;;10.67;;
67498;SDS011;54345;42.670;23.218;2022-10-17T02:41:54;21.73;;;9.23;;
67498;SDS011;54345;42.670;23.218;2022-10-17T02:44:23;19.67;;;9.43;;
67498;SDS011;54345;42.670;23.218;2022-10-17T02:47:00;19.70;;;8.93;;
67498;SDS011;54345;42.670;23.218;2022-10-17T02:49:35;19.57;;;8.93;;
67498;SDS011;54345;42.670;23.218;2022-10-17T02:54:40;16.60;;;9.47;;
67498;SDS011;54345;42.670;23.218;2022-10-17T02:57:11;17.67;;;9.03;;
67498;SDS011;54345;42.670;23.218;2022-10-17T02:59:41;17.93;;;9.13;;
67498;SDS011;54345;42.670;23.218;2022-10-17T03:02:09;22.70;;;9.97;;
67498;SDS011;54345;42.670;23.218;2022-10-17T03:04:35;20.77;;;8.40;;
67498;SDS011;54345;42.670;23.218;2022-10-17T03:07:01;23.10;;;9.17;;
67498;SDS011;54345;42.670;23.218;2022-10-17T03:09:26;20.53;;;9.60;;
67498;SDS011;54345;42.670;23.218;2022-10-17T03:11:52;22.70;;;9.97;;
67498;SDS011;54345;42.670;23.218;2022-10-17T03:14:17;22.07;;;10.60;;
67498;SDS011;54345;42.670;23.218;2022-10-17T03:16:43;19.23;;;10.13;;
67498;SDS011;54345;42.670;23.218;2022-10-17T03:19:08;25.53;;;9.60;;
67498;SDS011;54345;42.670;23.218;2022-10-17T03:21:34;18.60;;;9.53;;
67498;SDS011;54345;42.670;23.218;2022-10-17T03:24:03;17.63;;;9.77;;
67498;SDS011;54345;42.670;23.218;2022-10-17T03:26:29;21.80;;;10.80;;
67498;SDS011;54345;42.670;23.218;2022-10-17T03:28:55;21.57;;;10.23;;
67498;SDS011;54345;42.670;23.218;2022-10-17T03:31:21;24.00;;;9.77;;
67498;SDS011;54345;42.670;23.218;2022-10-17T03:33:47;22.50;;;9.60;;
67498;SDS011;54345;42.670;23.218;2022-10-17T03:36:13;19.17;;;9.03;;
67498;SDS011;54345;42.670;23.218;2022-10-17T03:38:40;22.37;;;10.47;;
67498;SDS011;54345;42.670;23.218;2022-10-17T03:41:07;29.57;;;10.33;;
67498;SDS011;54345;42.670;23.218;2022-10-17T03:43:33;22.90;;;11.23;;
67498;SDS011;54345;42.670;23.218;2022-10-17T03:45:58;17.10;;;9.70;;
67498;SDS011;54345;42.670;23.218;2022-10-17T03:48:25;19.93;;;9.20;;
67498;SDS011;54345;42.670;23.218;2022-10-17T03:50:57;24.70;;;10.00;;
67498;SDS011;54345;42.670;23.218;2022-10-17T03:53:26;24.60;;;9.03;;
67498;SDS011;54345;42.670;23.218;2022-10-17T03:55:52;23.43;;;10.17;;
67498;SDS011;54345;42.670;23.218;2022-10-17T03:58:18;19.73;;;10.57;;
67498;SDS011;54345;42.670;23.218;2022-10-17T04:00:43;23.80;;;10.03;;
67498;SDS011;54345;42.670;23.218;2022-10-17T04:03:09;20.03;;;9.20;;
67498;SDS011;54345;42.670;23.218;2022-10-17T04:05:35;28.50;;;11.07;;
67498;SDS011;54345;42.670;23.218;2022-10-17T04:08:00;21.50;;;10.43;;
67498;SDS011;54345;42.670;23.218;2022-10-17T04:10:26;17.57;;;9.30;;
67498;SDS011;54345;42.670;23.218;2022-10-17T04:12:51;22.17;;;9.57;;
67498;SDS011;54345;42.670;23.218;2022-10-17T04:15:17;18.07;;;9.43;;
67498;SDS011;54345;42.670;23.218;2022-10-17T04:17:42;23.10;;;9.10;;
67498;SDS011;54345;42.670;23.218;2022-10-17T04:20:08;22.80;;;9.90;;
67498;SDS011;54345;42.670;23.218;2022-10-17T04:22:34;19.33;;;9.47;;
67498;SDS011;54345;42.670;23.218;2022-10-17T04:24:59;25.13;;;10.50;;
67498;SDS011;54345;42.670;23.218;2022-10-17T04:27:25;23.97;;;10.93;;
67498;SDS011;54345;42.670;23.218;2022-10-17T04:29:50;24.33;;;11.77;;
67498;SDS011;54345;42.670;23.218;2022-10-17T04:32:16;29.33;;;11.43;;
67498;SDS011;54345;42.670;23.218;2022-10-17T04:34:41;22.77;;;9.80;;
67498;SDS011;54345;42.670;23.218;2022-10-17T04:37:07;25.57;;;10.30;;
67498;SDS011;54345;42.670;23.218;2022-10-17T04:39:32;20.87;;;9.97;;
67498;SDS011;54345;42.670;23.218;2022-10-17T04:41:58;24.40;;;9.70;;
67498;SDS011;54345;42.670;23.218;2022-10-17T04:44:23;20.63;;;9.47;;
67498;SDS011;54345;42.670;23.218;2022-10-17T04:46:49;17.00;;;9.20;;
67498;SDS011;54345;42.670;23.218;2022-10-17T04:49:14;22.27;;;9.37;;
67498;SDS011;54345;42.670;23.218;2022-10-17T04:51:40;23.70;;;10.13;;
67498;SDS011;54345;42.670;23.218;2022-10-17T04:54:05;20.70;;;8.93;;
67498;SDS011;54345;42.670;23.218;2022-10-17T04:56:31;25.60;;;9.20;;
67498;SDS011;54345;42.670;23.218;2022-10-17T04:58:57;24.00;;;9.33;;
67498;SDS011;54345;42.670;23.218;2022-10-17T05:01:23;23.50;;;9.00;;
67498;SDS011;54345;42.670;23.218;2022-10-17T05:03:50;23.00;;;9.13;;
67498;SDS011;54345;42.670;23.218;2022-10-17T05:06:23;53.90;;;12.93;;
67498;SDS011;54345;42.670;23.218;2022-10-17T05:08:52;24.87;;;9.80;;
67498;SDS011;54345;42.670;23.218;2022-10-17T05:11:22;21.37;;;9.10;;
67498;SDS011;54345;42.670;23.218;2022-10-17T05:13:50;22.83;;;9.03;;
67498;SDS011;54345;42.670;23.218;2022-10-17T05:16:23;22.63;;;9.50;;
67498;SDS011;54345;42.670;23.218;2022-10-17T05:18:50;26.87;;;10.03;;
67498;SDS011;54345;42.670;23.218;2022-10-17T05:21:17;30.47;;;9.50;;
67498;SDS011;54345;42.670;23.218;2022-10-17T05:23:44;23.23;;;8.63;;
67498;SDS011;54345;42.670;23.218;2022-10-17T05:26:10;27.70;;;9.83;;
67498;SDS011;54345;42.670;23.218;2022-10-17T05:28:36;22.77;;;9.13;;
67498;SDS011;54345;42.670;23.218;2022-10-17T05:31:03;26.90;;;10.10;;
67498;SDS011;54345;42.670;23.218;2022-10-17T05:33:29;39.07;;;10.40;;
67498;SDS011;54345;42.670;23.218;2022-10-17T05:35:55;37.77;;;12.00;;
67498;SDS011;54345;42.670;23.218;2022-10-17T05:38:20;28.63;;;11.30;;
67498;SDS011;54345;42.670;23.218;2022-10-17T05:40:46;21.37;;;9.27;;
67498;SDS011;54345;42.670;23.218;2022-10-17T05:43:11;22.40;;;9.77;;
67498;SDS011;54345;42.670;23.218;2022-10-17T05:45:38;42.27;;;10.77;;
67498;SDS011;54345;42.670;23.218;2022-10-17T05:48:04;32.07;;;10.13;;
67498;SDS011;54345;42.670;23.218;2022-10-17T05:50:30;26.63;;;10.53;;
67498;SDS011;54345;42.670;23.218;2022-10-17T05:52:56;24.33;;;9.83;;
67498;SDS011;54345;42.670;23.218;2022-10-17T05:55:21;18.60;;;8.77;;
67498;SDS011;54345;42.670;23.218;2022-10-17T05:57:48;41.00;;;9.97;;
67498;SDS011;54345;42.670;23.218;2022-10-17T06:00:14;98.20;;;14.70;;
67498;SDS011;54345;42.670;23.218;2022-10-17T06:02:40;45.07;;;10.33;;
67498;SDS011;54345;42.670;23.218;2022-10-17T06:05:07;27.83;;;9.90;;
67498;SDS011;54345;42.670;23.218;2022-10-17T06:07:34;98.03;;;15.50;;
67498;SDS011;54345;42.670;23.218;2022-10-17T06:10:00;34.00;;;12.27;;
67498;SDS011;54345;42.670;23.218;2022-10-17T06:12:25;57.30;;;15.53;;
67498;SDS011;54345;42.670;23.218;2022-10-17T06:14:51;28.03;;;11.30;;
67498;SDS011;54345;42.670;23.218;2022-10-17T06:17:16;23.17;;;11.10;;
67498;SDS011;54345;42.670;23.218;2022-10-17T06:19:42;31.13;;;11.57;;
67498;SDS011;54345;42.670;23.218;2022-10-17T06:22:08;24.57;;;11.40;;
67498;SDS011;54345;42.670;23.218;2022-10-17T06:24:34;27.73;;;11.67;;
67498;SDS011;54345;42.670;23.218;2022-10-17T06:26:59;60.30;;;14.43;;
67498;SDS011;54345;42.670;23.218;2022-10-17T06:29:25;45.23;;;14.63;;
67498;SDS011;54345;42.670;23.218;2022-10-17T06:31:50;47.13;;;12.67;;
67498;SDS011;54345;42.670;23.218;2022-10-17T06:34:16;46.63;;;12.93;;
67498;SDS011;54345;42.670;23.218;2022-10-17T06:36:42;38.93;;;10.50;;
67498;SDS011;54345;42.670;23.218;2022-10-17T06:39:07;38.97;;;12.33;;
67498;SDS011;54345;42.670;23.218;2022-10-17T06:41:33;33.97;;;12.07;;
67498;SDS011;54345;42.670;23.218;2022-10-17T06:43:58;29.50;;;11.73;;
67498;SDS011;54345;42.670;23.218;2022-10-17T06:46:24;44.57;;;12.90;;
67498;SDS011;54345;42.670;23.218;2022-10-17T06:48:51;41.70;;;12.47;;
67498;SDS011;54345;42.670;23.218;2022-10-17T06:51:17;60.30;;;14.30;;
67498;SDS011;54345;42.670;23.218;2022-10-17T06:53:42;67.77;;;13.77;;
67498;SDS011;54345;42.670;23.218;2022-10-17T06:56:08;37.37;;;12.57;;
67498;SDS011;54345;42.670;23.218;2022-10-17T06:58:35;30.73;;;11.00;;
67498;SDS011;54345;42.670;23.218;2022-10-17T07:01:10;34.70;;;12.23;;
67498;SDS011;54345;42.670;23.218;2022-10-17T07:03:37;29.80;;;11.90;;
67498;SDS011;54345;42.670;23.218;2022-10-17T07:06:05;23.07;;;11.63;;
67498;SDS011;54345;42.670;23.218;2022-10-17T07:08:31;58.00;;;12.80;;
67498;SDS011;54345;42.670;23.218;2022-10-17T07:10:57;47.83;;;12.73;;
67498;SDS011;54345;42.670;23.218;2022-10-17T07:13:22;74.73;;;16.50;;
67498;SDS011;54345;42.670;23.218;2022-10-17T07:15:48;46.27;;;13.10;;
67498;SDS011;54345;42.670;23.218;2022-10-17T07:18:13;37.97;;;13.13;;
67498;SDS011;54345;42.670;23.218;2022-10-17T07:20:39;223.23;;;22.60;;
67498;SDS011;54345;42.670;23.218;2022-10-17T07:23:05;72.47;;;17.07;;
67498;SDS011;54345;42.670;23.218;2022-10-17T07:25:30;78.87;;;16.43;;
67498;SDS011;54345;42.670;23.218;2022-10-17T07:27:56;60.53;;;15.53;;
67498;SDS011;54345;42.670;23.218;2022-10-17T07:30:22;42.87;;;13.30;;
67498;SDS011;54345;42.670;23.218;2022-10-17T07:32:48;32.50;;;14.07;;
67498;SDS011;54345;42.670;23.218;2022-10-17T07:35:16;43.67;;;12.97;;
67498;SDS011;54345;42.670;23.218;2022-10-17T07:37:42;22.83;;;11.23;;
67498;SDS011;54345;42.670;23.218;2022-10-17T07:40:07;41.10;;;12.50;;
67498;SDS011;54345;42.670;23.218;2022-10-17T07:42:35;49.33;;;14.00;;
67498;SDS011;54345;42.670;23.218;2022-10-17T07:45:01;105.27;;;17.33;;
67498;SDS011;54345;42.670;23.218;2022-10-17T07:47:27;68.97;;;15.10;;
67498;SDS011;54345;42.670;23.218;2022-10-17T07:49:55;64.77;;;14.93;;
67498;SDS011;54345;42.670;23.218;2022-10-17T07:52:21;43.73;;;13.90;;
67498;SDS011;54345;42.670;23.218;2022-10-17T07:54:47;34.30;;;13.67;;
67498;SDS011;54345;42.670;23.218;2022-10-17T07:57:13;25.17;;;12.67;;
67498;SDS011;54345;42.670;23.218;2022-10-17T07:59:38;92.17;;;16.87;;
67498;SDS011;54345;42.670;23.218;2022-10-17T08:02:04;48.73;;;14.73;;
67498;SDS011;54345;42.670;23.218;2022-10-17T08:04:29;38.80;;;14.03;;
67498;SDS011;54345;42.670;23.218;2022-10-17T08:06:55;38.40;;;13.83;;
67498;SDS011;54345;42.670;23.218;2022-10-17T08:09:20;25.27;;;11.43;;
67498;SDS011;54345;42.670;23.218;2022-10-17T08:11:46;28.17;;;12.37;;
67498;SDS011;54345;42.670;23.218;2022-10-17T08:14:13;27.50;;;12.77;;
67498;SDS011;54345;42.670;23.218;2022-10-17T08:16:41;31.40;;;13.20;;
67498;SDS011;54345;42.670;23.218;2022-10-17T08:19:07;39.43;;;13.87;;
67498;SDS011;54345;42.670;23.218;2022-10-17T08:21:35;41.20;;;13.57;;
67498;SDS011;54345;42.670;23.218;2022-10-17T08:24:02;33.53;;;12.63;;
67498;SDS011;54345;42.670;23.218;2022-10-17T08:26:28;43.53;;;14.67;;
67498;SDS011;54345;42.670;23.218;2022-10-17T08:28:54;65.47;;;15.73;;
67498;SDS011;54345;42.670;23.218;2022-10-17T08:31:20;24.47;;;11.60;;
67498;SDS011;54345;42.670;23.218;2022-10-17T08:33:47;43.90;;;13.33;;
67498;SDS011;54345;42.670;23.218;2022-10-17T08:36:15;43.57;;;14.93;;
67498;SDS011;54345;42.670;23.218;2022-10-17T08:38:41;31.13;;;14.07;;
67498;SDS011;54345;42.670;23.218;2022-10-17T08:43:55;23.53;;;10.47;;
67498;SDS011;54345;42.670;23.218;2022-10-17T08:46:46;31.07;;;9.63;;
67498;SDS011;54345;42.670;23.218;2022-10-17T08:49:18;40.20;;;11.43;;
67498;SDS011;54345;42.670;23.218;2022-10-17T08:51:54;42.20;;;12.17;;
67498;SDS011;54345;42.670;23.218;2022-10-17T08:54:33;31.07;;;10.97;;
67498;SDS011;54345;42.670;23.218;2022-10-17T08:57:08;39.33;;;12.93;;
67498;SDS011;54345;42.670;23.218;2022-10-17T08:59:37;24.70;;;10.93;;
67498;SDS011;54345;42.670;23.218;2022-10-17T09:02:12;39.17;;;13.27;;
67498;SDS011;54345;42.670;23.218;2022-10-17T09:23:48;38.40;;;14.60;;
67498;SDS011;54345;42.670;23.218;2022-10-17T09:26:17;34.87;;;15.07;;
67498;SDS011;54345;42.670;23.218;2022-10-17T09:28:43;65.57;;;16.67;;
67498;SDS011;54345;42.670;23.218;2022-10-17T09:31:20;80.23;;;17.03;;
67498;SDS011;54345;42.670;23.218;2022-10-17T09:33:53;38.83;;;13.50;;
67498;SDS011;54345;42.670;23.218;2022-10-17T09:36:34;47.43;;;15.10;;
67498;SDS011;54345;42.670;23.218;2022-10-17T09:39:03;42.60;;;14.07;;
67498;SDS011;54345;42.670;23.218;2022-10-17T09:44:17;28.37;;;13.53;;
67498;SDS011;54345;42.670;23.218;2022-10-17T09:49:45;51.77;;;11.87;;
67498;SDS011;54345;42.670;23.218;2022-10-17T09:52:24;28.30;;;9.40;;
67498;SDS011;54345;42.670;23.218;2022-10-17T09:55:02;29.37;;;10.07;;
67498;SDS011;54345;42.670;23.218;2022-10-17T09:57:49;35.63;;;9.90;;
67498;SDS011;54345;42.670;23.218;2022-10-17T10:00:23;19.53;;;9.33;;
67498;SDS011;54345;42.670;23.218;2022-10-17T10:05:38;43.23;;;10.27;;
67498;SDS011;54345;42.670;23.218;2022-10-17T10:08:10;104.13;;;13.43;;
67498;SDS011;54345;42.670;23.218;2022-10-17T10:10:39;31.23;;;8.93;;
67498;SDS011;54345;42.670;23.218;2022-10-17T10:15:43;27.57;;;7.27;;
67498;SDS011;54345;42.670;23.218;2022-10-17T10:21:04;22.90;;;6.13;;
67498;SDS011;54345;42.670;23.218;2022-10-17T10:23:34;22.93;;;5.93;;
67498;SDS011;54345;42.670;23.218;2022-10-17T10:26:25;37.97;;;8.00;;
67498;SDS011;54345;42.670;23.218;2022-10-17T10:28:55;24.37;;;5.73;;
67498;SDS011;54345;42.670;23.218;2022-10-17T10:31:28;16.13;;;5.20;;
67498;SDS011;54345;42.670;23.218;2022-10-17T10:34:00;21.87;;;6.47;;
67498;SDS011;54345;42.670;23.218;2022-10-17T10:36:50;20.10;;;4.57;;
67498;SDS011;54345;42.670;23.218;2022-10-17T10:42:06;14.93;;;3.70;;
67498;SDS011;54345;42.670;23.218;2022-10-17T10:44:44;79.73;;;8.57;;
67498;SDS011;54345;42.670;23.218;2022-10-17T10:49:52;37.33;;;5.90;;
67498;SDS011;54345;42.670;23.218;2022-10-17T10:52:44;33.80;;;6.07;;
67498;SDS011;54345;42.670;23.218;2022-10-17T10:57:51;54.20;;;9.23;;
67498;SDS011;54345;42.670;23.218;2022-10-17T11:00:22;24.77;;;5.63;;
67498;SDS011;54345;42.670;23.218;2022-10-17T11:08:28;23.73;;;4.33;;
67498;SDS011;54345;42.670;23.218;2022-10-17T11:11:04;45.47;;;6.63;;
67498;SDS011;54345;42.670;23.218;2022-10-17T11:13:50;24.77;;;5.07;;
67498;SDS011;54345;42.670;23.218;2022-10-17T11:24:26;14.57;;;4.17;;
67498;SDS011;54345;42.670;23.218;2022-10-17T11:27:01;35.73;;;5.50;;
67498;SDS011;54345;42.670;23.218;2022-10-17T11:29:29;26.23;;;5.13;;
67498;SDS011;54345;42.670;23.218;2022-10-17T11:31:58;15.53;;;4.33;;
67498;SDS011;54345;42.670;23.218;2022-10-17T11:34:29;42.17;;;6.70;;
67498;SDS011;54345;42.670;23.218;2022-10-17T11:37:01;19.47;;;4.63;;
67498;SDS011;54345;42.670;23.218;2022-10-17T11:39:41;33.27;;;6.10;;
67498;SDS011;54345;42.670;23.218;2022-10-17T11:42:30;31.70;;;5.30;;
67498;SDS011;54345;42.670;23.218;2022-10-17T11:45:10;21.13;;;5.03;;
67498;SDS011;54345;42.670;23.218;2022-10-17T11:47:49;17.40;;;4.03;;
67498;SDS011;54345;42.670;23.218;2022-10-17T11:50:35;18.97;;;4.23;;
67498;SDS011;54345;42.670;23.218;2022-10-17T11:53:22;19.40;;;4.03;;
67498;SDS011;54345;42.670;23.218;2022-10-17T11:55:52;18.67;;;5.20;;
67498;SDS011;54345;42.670;23.218;2022-10-17T12:04:20;17.20;;;3.83;;
67498;SDS011;54345;42.670;23.218;2022-10-17T12:06:58;18.03;;;4.17;;
67498;SDS011;54345;42.670;23.218;2022-10-17T12:12:06;13.00;;;3.80;;
67498;SDS011;54345;42.670;23.218;2022-10-17T12:16:58;32.73;;;5.17;;
67498;SDS011;54345;42.670;23.218;2022-10-17T12:19:26;13.77;;;3.97;;
67498;SDS011;54345;42.670;23.218;2022-10-17T12:24:28;17.27;;;4.50;;
67498;SDS011;54345;42.670;23.218;2022-10-17T12:26:56;13.80;;;3.83;;
67498;SDS011;54345;42.670;23.218;2022-10-17T12:29:24;15.07;;;4.30;;
67498;SDS011;54345;42.670;23.218;2022-10-17T12:31:53;17.23;;;4.57;;
67498;SDS011;54345;42.670;23.218;2022-10-17T12:34:18;12.30;;;3.83;;
67498;SDS011;54345;42.670;23.218;2022-10-17T12:36:47;16.47;;;4.37;;
67498;SDS011;54345;42.670;23.218;2022-10-17T12:46:55;19.20;;;4.43;;
67498;SDS011;54345;42.670;23.218;2022-10-17T12:52:17;31.73;;;5.47;;
67498;SDS011;54345;42.670;23.218;2022-10-17T12:54:50;24.13;;;5.33;;
67498;SDS011;54345;42.670;23.218;2022-10-17T12:59:51;21.57;;;4.73;;
67498;SDS011;54345;42.670;23.218;2022-10-17T13:02:19;22.30;;;4.77;;
67498;SDS011;54345;42.670;23.218;2022-10-17T13:04:47;18.77;;;4.23;;
67498;SDS011;54345;42.670;23.218;2022-10-17T13:07:18;29.67;;;4.93;;
67498;SDS011;54345;42.670;23.218;2022-10-17T13:09:46;18.93;;;4.10;;
67498;SDS011;54345;42.670;23.218;2022-10-17T13:12:13;33.90;;;5.83;;
67498;SDS011;54345;42.670;23.218;2022-10-17T13:14:44;20.43;;;4.60;;
67498;SDS011;54345;42.670;23.218;2022-10-17T13:17:25;18.30;;;4.73;;
67498;SDS011;54345;42.670;23.218;2022-10-17T13:19:53;26.17;;;5.10;;
67498;SDS011;54345;42.670;23.218;2022-10-17T13:22:23;20.97;;;4.73;;
67498;SDS011;54345;42.670;23.218;2022-10-17T13:24:51;38.57;;;6.43;;
67498;SDS011;54345;42.670;23.218;2022-10-17T13:27:25;17.13;;;4.60;;
67498;SDS011;54345;42.670;23.218;2022-10-17T13:29:56;23.70;;;4.70;;
67498;SDS011;54345;42.670;23.218;2022-10-17T13:32:24;19.90;;;4.50;;
67498;SDS011;54345;42.670;23.218;2022-10-17T13:35:03;26.40;;;4.93;;
67498;SDS011;54345;42.670;23.218;2022-10-17T13:37:30;33.17;;;5.67;;
67498;SDS011;54345;42.670;23.218;2022-10-17T13:39:55;44.03;;;6.77;;
67498;SDS011;54345;42.670;23.218;2022-10-17T13:42:25;21.27;;;4.70;;
67498;SDS011;54345;42.670;23.218;2022-10-17T13:44:53;24.77;;;5.17;;
67498;SDS011;54345;42.670;23.218;2022-10-17T13:47:22;26.87;;;5.23;;
67498;SDS011;54345;42.670;23.218;2022-10-17T13:49:51;29.97;;;5.43;;
67498;SDS011;54345;42.670;23.218;2022-10-17T13:52:18;23.07;;;4.93;;
67498;SDS011;54345;42.670;23.218;2022-10-17T13:54:46;21.53;;;4.80;;
67498;SDS011;54345;42.670;23.218;2022-10-17T13:57:33;35.80;;;6.47;;
67498;SDS011;54345;42.670;23.218;2022-10-17T13:59:59;34.70;;;6.27;;
67498;SDS011;54345;42.670;23.218;2022-10-17T14:02:28;17.57;;;4.13;;
67498;SDS011;54345;42.670;23.218;2022-10-17T14:05:14;18.10;;;4.40;;
67498;SDS011;54345;42.670;23.218;2022-10-17T14:07:52;25.73;;;4.97;;
67498;SDS011;54345;42.670;23.218;2022-10-17T14:10:21;49.10;;;6.27;;
67498;SDS011;54345;42.670;23.218;2022-10-17T14:12:52;39.00;;;6.70;;
67498;SDS011;54345;42.670;23.218;2022-10-17T14:15:20;33.13;;;5.53;;
67498;SDS011;54345;42.670;23.218;2022-10-17T14:17:55;41.63;;;6.13;;
67498;SDS011;54345;42.670;23.218;2022-10-17T14:20:23;19.73;;;4.60;;
67498;SDS011;54345;42.670;23.218;2022-10-17T14:22:50;26.20;;;5.07;;
67498;SDS011;54345;42.670;23.218;2022-10-17T14:28:07;23.33;;;4.77;;
67498;SDS011;54345;42.670;23.218;2022-10-17T14:33:12;31.80;;;5.23;;
67498;SDS011;54345;42.670;23.218;2022-10-17T14:35:48;19.43;;;4.87;;
67498;SDS011;54345;42.670;23.218;2022-10-17T14:38:15;19.63;;;4.30;;
67498;SDS011;54345;42.670;23.218;2022-10-17T14:40:47;22.60;;;5.13;;
67498;SDS011;54345;42.670;23.218;2022-10-17T14:43:21;19.80;;;4.80;;
67498;SDS011;54345;42.670;23.218;2022-10-17T14:45:49;17.33;;;4.90;;
67498;SDS011;54345;42.670;23.218;2022-10-17T14:48:16;28.00;;;5.20;;
67498;SDS011;54345;42.670;23.218;2022-10-17T14:51:08;19.80;;;5.07;;
67498;SDS011;54345;42.670;23.218;2022-10-17T14:53:33;25.03;;;5.50;;
67498;SDS011;54345;42.670;23.218;2022-10-17T14:56:01;21.00;;;5.13;;
67498;SDS011;54345;42.670;23.218;2022-10-17T14:58:32;29.23;;;5.87;;
67498;SDS011;54345;42.670;23.218;2022-10-17T15:00:58;18.60;;;5.67;;
67498;SDS011;54345;42.670;23.218;2022-10-17T15:03:26;31.73;;;5.70;;
67498;SDS011;54345;42.670;23.218;2022-10-17T15:05:52;25.07;;;5.57;;
67498;SDS011;54345;42.670;23.218;2022-10-17T15:08:20;30.77;;;6.23;;
67498;SDS011;54345;42.670;23.218;2022-10-17T15:10:48;27.63;;;6.20;;
67498;SDS011;54345;42.670;23.218;2022-10-17T15:13:15;23.77;;;5.40;;
67498;SDS011;54345;42.670;23.218;2022-10-17T15:15:41;33.63;;;6.43;;
67498;SDS011;54345;42.670;23.218;2022-10-17T15:18:10;20.53;;;5.63;;
67498;SDS011;54345;42.670;23.218;2022-10-17T15:20:38;29.27;;;7.00;;
67498;SDS011;54345;42.670;23.218;2022-10-17T15:23:04;32.83;;;5.70;;
67498;SDS011;54345;42.670;23.218;2022-10-17T15:25:30;24.37;;;5.37;;
67498;SDS011;54345;42.670;23.218;2022-10-17T15:27:56;27.13;;;6.60;;
67498;SDS011;54345;42.670;23.218;2022-10-17T15:30:23;24.40;;;6.57;;
67498;SDS011;54345;42.670;23.218;2022-10-17T15:32:58;30.63;;;7.97;;
67498;SDS011;54345;42.670;23.218;2022-10-17T15:35:24;29.87;;;7.47;;
67498;SDS011;54345;42.670;23.218;2022-10-17T15:37:51;24.27;;;7.17;;
67498;SDS011;54345;42.670;23.218;2022-10-17T15:40:18;34.13;;;7.30;;
67498;SDS011;54345;42.670;23.218;2022-10-17T15:42:46;25.60;;;5.77;;
67498;SDS011;54345;42.670;23.218;2022-10-17T15:45:13;20.90;;;5.93;;
67498;SDS011;54345;42.670;23.218;2022-10-17T15:47:42;28.47;;;6.73;;
67498;SDS011;54345;42.670;23.218;2022-10-17T15:50:13;25.60;;;6.20;;
67498;SDS011;54345;42.670;23.218;2022-10-17T15:52:40;28.40;;;6.27;;
67498;SDS011;54345;42.670;23.218;2022-10-17T15:55:06;21.73;;;5.67;;
67498;SDS011;54345;42.670;23.218;2022-10-17T15:57:35;20.93;;;5.70;;
67498;SDS011;54345;42.670;23.218;2022-10-17T16:00:06;24.10;;;6.90;;
67498;SDS011;54345;42.670;23.218;2022-10-17T16:02:39;24.13;;;6.73;;
67498;SDS011;54345;42.670;23.218;2022-10-17T16:05:09;23.57;;;6.63;;
67498;SDS011;54345;42.670;23.218;2022-10-17T16:07:49;22.20;;;6.47;;
67498;SDS011;54345;42.670;23.218;2022-10-17T16:10:15;27.23;;;7.10;;
67498;SDS011;54345;42.670;23.218;2022-10-17T16:12:42;29.90;;;7.07;;
67498;SDS011;54345;42.670;23.218;2022-10-17T16:15:18;25.27;;;6.67;;
67498;SDS011;54345;42.670;23.218;2022-10-17T16:17:52;15.33;;;5.70;;
67498;SDS011;54345;42.670;23.218;2022-10-17T16:20:19;28.67;;;6.67;;
67498;SDS011;54345;42.670;23.218;2022-10-17T16:22:46;27.77;;;6.43;;
67498;SDS011;54345;42.670;23.218;2022-10-17T16:25:17;25.70;;;6.10;;
67498;SDS011;54345;42.670;23.218;2022-10-17T16:27:49;29.10;;;6.70;;
67498;SDS011;54345;42.670;23.218;2022-10-17T16:30:16;29.07;;;7.10;;
67498;SDS011;54345;42.670;23.218;2022-10-17T16:32:43;26.07;;;6.03;;